Time;durP1;ratioP1;P1;durP2;ratioP2;P2;SDS_P1;SDS_P2;PMS_P1;PMS_P2;Temp;Humidity;BMP_temperature;BMP_pressure;BME280_temperature;BME280_humidity;BME280_pressure;Samples;Min_cycle;Max_cycle;Signal;HPM_P1;HPM_P2
2023/03/09 00:01:39;;;;;;;13.10;2.65;;;;;;;13.71;nan;99276.00;4996863;28;20363;-68
2023/03/09 00:04:05;;;;;;;9.60;2.10;;;;;;;13.70;nan;99275.16;4996131;28;20038;-68
2023/03/09 00:06:31;;;;;;;8.43;1.95;;;;;;;13.70;nan;99285.75;4997925;28;20026;-68
2023/03/09 00:08:57;;;;;;;10.77;1.70;;;;;;;13.69;nan;99278.72;4996309;28;20093;-69
2023/03/09 00:11:24;;;;;;;9.00;2.20;;;;;;;13.70;nan;99283.09;4980529;28;20035;-68
2023/03/09 00:13:50;;;;;;;8.88;1.60;;;;;;;13.70;nan;99287.50;4979032;28;20063;-68
2023/03/09 00:16:17;;;;;;;10.80;2.00;;;;;;;13.68;nan;99279.66;5001913;28;20030;-68
2023/03/09 00:18:43;;;;;;;31.00;10.25;;;;;;;13.68;nan;99281.41;4999742;28;20081;-68
2023/03/09 00:21:34;;;;;;;12.95;2.88;;;;;;;13.68;nan;99277.00;4999782;28;20474;-68
2023/03/09 00:23:58;;;;;;;7.77;2.00;;;;;;;13.71;nan;99271.59;4999400;28;20042;-68
2023/03/09 00:26:23;;;;;;;21.35;5.80;;;;;;;13.71;nan;99282.19;4999545;28;20041;-68
2023/03/09 00:28:49;;;;;;;12.47;3.00;;;;;;;13.71;nan;99276.91;4999715;28;20038;-69
2023/03/09 00:31:15;;;;;;;8.35;1.90;;;;;;;13.72;nan;99286.56;4999038;28;20037;-68
2023/03/09 00:33:40;;;;;;;7.10;1.80;;;;;;;13.73;nan;99288.28;4999545;28;20475;-68
2023/03/09 00:36:06;;;;;;;10.37;1.80;;;;;;;13.73;nan;99277.69;4999342;28;20183;-68
2023/03/09 00:38:31;;;;;;;11.87;1.70;;;;;;;13.73;nan;99275.06;5001806;28;20030;-68
2023/03/09 00:40:56;;;;;;;8.18;1.98;;;;;;;13.71;nan;99261.03;5006218;28;20046;-68
2023/03/09 00:43:22;;;;;;;9.67;2.60;;;;;;;13.66;nan;99276.19;4999325;28;20034;-68
2023/03/09 00:45:47;;;;;;;14.03;4.83;;;;;;;13.63;nan;99273.66;4997745;28;20037;-68
2023/03/09 00:48:12;;;;;;;11.63;2.60;;;;;;;13.61;nan;99283.38;4997938;28;20022;-68
2023/03/09 00:50:38;;;;;;;9.30;1.83;;;;;;;13.59;nan;99287.84;4998943;28;20105;-68
2023/03/09 00:53:03;;;;;;;8.38;1.73;;;;;;;13.56;nan;99274.75;4999126;28;20164;-68
2023/03/09 00:55:29;;;;;;;10.40;1.60;;;;;;;13.55;nan;99273.88;4999120;28;20101;-68
2023/03/09 00:57:54;;;;;;;8.13;1.90;;;;;;;13.55;nan;99271.25;5002713;28;20028;-68
2023/03/09 01:00:20;;;;;;;10.23;2.22;;;;;;;13.53;nan;99277.50;5001314;28;20048;-69
2023/03/09 01:02:46;;;;;;;7.90;1.80;;;;;;;13.51;nan;99276.66;4998012;28;20454;-68
2023/03/09 01:05:11;;;;;;;6.97;2.27;;;;;;;13.49;nan;99269.66;4993501;28;20030;-69
2023/03/09 01:07:37;;;;;;;8.35;2.13;;;;;;;13.49;nan;99277.59;4978125;28;20026;-68
2023/03/09 01:10:04;;;;;;;8.57;2.30;;;;;;;13.49;nan;99289.94;4979228;28;20037;-69
2023/03/09 01:12:29;;;;;;;9.52;2.47;;;;;;;13.49;nan;99293.47;4978030;28;20027;-68
2023/03/09 01:14:58;;;;;;;13.77;2.13;;;;;;;13.49;nan;99292.56;4988593;28;20036;-68
2023/03/09 01:17:23;;;;;;;12.60;2.40;;;;;;;13.49;nan;99287.28;4998528;28;20033;-68
2023/03/09 01:19:49;;;;;;;11.73;2.30;;;;;;;13.49;nan;99290.81;4997348;28;20026;-68
2023/03/09 01:22:15;;;;;;;11.20;2.60;;;;;;;13.48;nan;99286.44;4997133;28;20026;-68
2023/03/09 01:24:40;;;;;;;15.87;2.40;;;;;;;13.48;nan;99280.28;4998376;28;20092;-68
2023/03/09 01:27:07;;;;;;;8.73;2.47;;;;;;;13.45;nan;99286.53;4998664;28;20080;-68
2023/03/09 01:29:33;;;;;;;6.70;1.70;;;;;;;13.43;nan;99282.19;4998206;28;20089;-68
2023/03/09 01:31:58;;;;;;;9.38;2.35;;;;;;;13.41;nan;99255.78;4997397;28;20030;-68
2023/03/09 01:34:23;;;;;;;9.10;2.00;;;;;;;13.37;nan;99263.84;4998200;28;20109;-68
2023/03/09 01:36:49;;;;;;;11.80;2.20;;;;;;;13.31;nan;99275.50;4998599;28;20030;-68
2023/03/09 01:39:14;;;;;;;9.13;1.83;;;;;;;13.27;nan;99284.44;5005631;28;20271;-68
2023/03/09 01:41:40;;;;;;;11.23;2.87;;;;;;;13.25;nan;99283.63;4999110;28;20026;-68
2023/03/09 01:44:12;;;;;;;11.47;2.60;;;;;;;13.23;nan;99286.28;4998085;28;20065;-68
2023/03/09 01:46:38;;;;;;;11.18;3.10;;;;;;;13.24;nan;99280.09;4998095;28;20054;-68
2023/03/09 01:49:23;;;;;;;11.83;3.37;;;;;;;13.26;nan;99283.59;4997963;28;20481;-68
2023/03/09 01:51:54;;;;;;;10.60;3.17;;;;;;;13.27;nan;99295.88;4998127;28;20034;-68
2023/03/09 01:54:51;;;;;;;9.10;2.45;;;;;;;13.27;nan;99306.47;4997691;28;20041;-68
2023/03/09 01:57:28;;;;;;;10.68;1.90;;;;;;;13.30;nan;99289.63;5000730;28;20042;-69
2023/03/09 01:59:59;;;;;;;11.15;2.42;;;;;;;13.26;nan;99288.88;4983859;28;20041;-68
2023/03/09 02:02:29;;;;;;;16.37;2.63;;;;;;;13.20;nan;99287.28;4992366;28;20121;-68
2023/03/09 02:05:01;;;;;;;16.50;3.17;;;;;;;13.13;nan;99283.06;4996806;28;20061;-69
2023/03/09 02:07:28;;;;;;;16.83;3.10;;;;;;;13.08;nan;99274.41;4997952;28;20034;-68
2023/03/09 02:10:06;;;;;;;12.38;2.90;;;;;;;13.03;nan;99277.22;4997792;28;20025;-68
2023/03/09 02:12:32;;;;;;;13.20;2.85;;;;;;;13.03;nan;99263.13;4997956;28;20030;-68
2023/03/09 02:14:58;;;;;;;21.03;3.20;;;;;;;13.02;nan;99267.56;5000968;28;20085;-69
2023/03/09 02:17:24;;;;;;;19.70;2.78;;;;;;;13.01;nan;99260.53;4997692;28;20030;-69
2023/03/09 02:20:04;;;;;;;18.00;2.50;;;;;;;13.01;nan;99257.88;4996384;28;20026;-68
2023/03/09 02:22:31;;;;;;;17.17;3.10;;;;;;;13.04;nan;99259.56;4997853;28;20026;-68
2023/03/09 02:25:12;;;;;;;16.92;2.25;;;;;;;13.03;nan;99265.78;4996123;28;20172;-69
2023/03/09 02:27:38;;;;;;;19.33;2.45;;;;;;;13.07;nan;99265.63;4996424;28;20054;-69
2023/03/09 02:30:05;;;;;;;15.57;2.43;;;;;;;13.07;nan;99257.72;4996751;28;20576;-68
2023/03/09 02:32:31;;;;;;;20.52;2.47;;;;;;;13.07;nan;99251.53;4997342;28;20430;-69
2023/03/09 02:34:57;;;;;;;19.60;2.70;;;;;;;13.07;nan;99248.91;4997322;28;20034;-69
2023/03/09 02:37:22;;;;;;;13.67;2.40;;;;;;;13.07;nan;99248.91;4997646;28;20029;-69
2023/03/09 02:39:50;;;;;;;14.87;2.80;;;;;;;13.07;nan;99248.91;5004810;28;20014;-69
2023/03/09 02:42:17;;;;;;;21.02;3.53;;;;;;;13.06;nan;99239.25;4998107;28;20030;-68
2023/03/09 02:44:42;;;;;;;12.45;3.53;;;;;;;13.06;nan;99237.47;4997361;28;20434;-68
2023/03/09 02:47:13;;;;;;;15.03;3.30;;;;;;;13.04;nan;99225.22;4997390;28;20026;-69
2023/03/09 02:49:38;;;;;;;13.30;3.10;;;;;;;13.04;nan;99231.38;4997157;28;20077;-69
2023/03/09 02:52:04;;;;;;;16.33;2.93;;;;;;;13.02;nan;99237.63;4997289;28;20026;-69
2023/03/09 02:54:30;;;;;;;16.90;3.33;;;;;;;13.01;nan;99249.09;4997095;28;20034;-68
2023/03/09 02:56:55;;;;;;;13.67;3.83;;;;;;;12.99;nan;99258.84;5000754;28;20029;-69
2023/03/09 02:59:21;;;;;;;21.63;5.20;;;;;;;12.99;nan;99272.91;4997507;28;20034;-69
2023/03/09 03:01:46;;;;;;;15.90;4.83;;;;;;;13.00;nan;99284.38;4999790;28;20455;-68
2023/03/09 03:04:11;;;;;;;22.87;5.10;;;;;;;12.99;nan;99270.28;4992026;28;20572;-69
2023/03/09 03:06:37;;;;;;;19.47;4.27;;;;;;;13.00;nan;99273.78;4997180;28;20164;-69
2023/03/09 03:09:03;;;;;;;19.25;3.83;;;;;;;13.00;nan;99271.16;4996955;28;20030;-69
2023/03/09 03:11:28;;;;;;;24.20;3.40;;;;;;;12.99;nan;99262.34;4997364;28;20054;-69
2023/03/09 03:13:54;;;;;;;20.60;2.90;;;;;;;12.99;nan;99261.50;4997018;28;20027;-69
2023/03/09 03:16:20;;;;;;;21.10;2.97;;;;;;;12.99;nan;99250.94;5001708;28;20085;-69
2023/03/09 03:18:46;;;;;;;21.40;4.15;;;;;;;12.99;nan;99248.28;4997095;28;20034;-69
2023/03/09 03:21:11;;;;;;;27.07;3.80;;;;;;;12.98;nan;99235.97;4997102;28;20057;-68
2023/03/09 03:23:36;;;;;;;13.20;3.60;;;;;;;12.96;nan;99243.94;4996928;28;20022;-68
2023/03/09 03:26:07;;;;;;;23.97;3.57;;;;;;;12.90;nan;99242.38;4996988;28;20509;-69
2023/03/09 03:28:32;;;;;;;18.80;3.22;;;;;;;12.86;nan;99242.50;4996839;28;20060;-68
2023/03/09 03:30:58;;;;;;;16.67;3.60;;;;;;;12.81;nan;99239.13;4996806;28;20109;-69
2023/03/09 03:33:23;;;;;;;16.23;3.40;;;;;;;12.78;nan;99237.44;4996889;28;20402;-69
2023/03/09 03:35:48;;;;;;;14.88;3.53;;;;;;;12.76;nan;99236.63;4996981;28;20034;-69
2023/03/09 03:38:14;;;;;;;23.60;3.83;;;;;;;12.74;nan;99233.16;4996858;28;20110;-68
2023/03/09 03:40:39;;;;;;;18.77;3.50;;;;;;;12.72;nan;99238.47;5006358;28;20041;-68
2023/03/09 03:43:05;;;;;;;23.10;3.93;;;;;;;12.70;nan;99228.91;4999244;28;20031;-69
2023/03/09 03:45:30;;;;;;;26.40;5.00;;;;;;;12.67;nan;99231.63;5000663;28;20034;-68
2023/03/09 03:47:55;;;;;;;23.48;4.43;;;;;;;12.60;nan;99223.88;4998987;28;20022;-68
2023/03/09 03:50:21;;;;;;;19.27;4.33;;;;;;;12.55;nan;99215.22;5000453;28;20027;-68
2023/03/09 03:52:46;;;;;;;17.10;4.20;;;;;;;12.51;nan;99224.13;5000212;28;20402;-68
2023/03/09 03:55:11;;;;;;;20.80;4.43;;;;;;;12.48;nan;99227.72;4988172;28;20038;-69
2023/03/09 03:57:37;;;;;;;17.87;4.17;;;;;;;12.51;nan;99221.50;4993298;28;20096;-68
2023/03/09 04:00:09;;;;;;;12.85;3.78;;;;;;;12.52;nan;99220.59;4986623;28;20070;-69
2023/03/09 04:02:35;;;;;;;16.13;3.80;;;;;;;12.51;nan;99217.97;4999947;28;20030;-69
2023/03/09 04:05:00;;;;;;;15.80;3.95;;;;;;;12.49;nan;99218.03;4994102;28;20498;-68
2023/03/09 04:07:25;;;;;;;16.90;4.03;;;;;;;12.50;nan;99217.13;5000086;28;20069;-68
2023/03/09 04:09:51;;;;;;;22.67;4.50;;;;;;;12.49;nan;99220.69;5000121;28;20031;-68
2023/03/09 04:12:16;;;;;;;14.03;3.90;;;;;;;12.49;nan;99221.53;4999940;28;20026;-68
2023/03/09 04:14:41;;;;;;;19.17;4.30;;;;;;;12.48;nan;99221.59;5003143;28;20034;-68
2023/03/09 04:17:08;;;;;;;19.50;4.07;;;;;;;12.47;nan;99215.44;5000051;28;20030;-68
2023/03/09 04:19:33;;;;;;;17.20;3.60;;;;;;;12.47;nan;99217.22;5000073;28;20029;-68
2023/03/09 04:21:59;;;;;;;19.15;4.35;;;;;;;12.43;nan;99211.16;4999659;28;20026;-68
2023/03/09 04:24:24;;;;;;;15.83;4.30;;;;;;;12.45;nan;99224.31;4999695;28;20041;-68
2023/03/09 04:26:50;;;;;;;19.97;4.70;;;;;;;12.45;nan;99221.69;4999778;28;20034;-69
2023/03/09 04:29:15;;;;;;;16.87;4.60;;;;;;;12.48;nan;99222.44;4982196;28;20061;-68
2023/03/09 04:31:40;;;;;;;17.53;4.60;;;;;;;12.51;nan;99225.91;4999027;28;20033;-68
2023/03/09 04:34:06;;;;;;;20.63;4.57;;;;;;;12.51;nan;99221.50;4999643;28;20289;-68
2023/03/09 04:36:31;;;;;;;15.87;4.23;;;;;;;12.49;nan;99226.81;4999537;28;20112;-69
2023/03/09 04:38:56;;;;;;;24.10;4.87;;;;;;;12.45;nan;99230.44;5005368;28;20049;-68
2023/03/09 04:41:22;;;;;;;16.80;4.20;;;;;;;12.42;nan;99227.03;5002704;28;20066;-68
2023/03/09 04:43:47;;;;;;;24.87;4.50;;;;;;;12.39;nan;99235.03;4999475;28;20081;-69
2023/03/09 04:46:13;;;;;;;18.43;4.27;;;;;;;12.35;nan;99237.75;4999103;28;20345;-68
2023/03/09 04:48:38;;;;;;;22.33;4.73;;;;;;;12.33;nan;99247.50;4999469;28;20030;-68
2023/03/09 04:51:04;;;;;;;17.13;4.50;;;;;;;12.31;nan;99241.41;4993622;28;20423;-68
2023/03/09 04:53:29;;;;;;;20.48;5.07;;;;;;;12.31;nan;99248.47;4979473;28;20105;-68
2023/03/09 04:55:55;;;;;;;18.40;4.73;;;;;;;12.31;nan;99244.03;4978410;28;20035;-68
2023/03/09 04:58:20;;;;;;;25.53;4.90;;;;;;;12.31;nan;99244.03;4995899;28;20037;-68
2023/03/09 05:00:46;;;;;;;20.53;4.90;;;;;;;12.30;nan;99244.97;4987631;28;20119;-69
2023/03/09 05:03:12;;;;;;;18.80;4.72;;;;;;;12.29;nan;99244.97;4994843;28;20085;-68
2023/03/09 05:05:37;;;;;;;26.53;5.20;;;;;;;12.26;nan;99238.03;5008839;28;20030;-69
2023/03/09 05:08:02;;;;;;;15.80;4.25;;;;;;;12.27;nan;99236.25;4998965;28;20170;-69
2023/03/09 05:10:29;;;;;;;16.37;4.63;;;;;;;12.24;nan;99245.13;4998767;28;20050;-68
2023/03/09 05:12:54;;;;;;;23.50;4.70;;;;;;;12.21;nan;99242.59;4999099;28;20026;-68
2023/03/09 05:15:20;;;;;;;17.90;4.60;;;;;;;12.19;nan;99233.84;5001844;28;20058;-68
2023/03/09 05:17:45;;;;;;;23.60;5.33;;;;;;;12.14;nan;99225.16;4998745;28;20073;-68
2023/03/09 05:20:11;;;;;;;19.53;4.70;;;;;;;12.08;nan;99217.41;4998822;28;20606;-68
2023/03/09 05:22:37;;;;;;;27.58;6.20;;;;;;;12.01;nan;99220.22;4997624;28;20034;-68
2023/03/09 05:25:05;;;;;;;25.77;5.95;;;;;;;11.95;nan;99217.72;4997492;28;20032;-68
2023/03/09 05:27:31;;;;;;;26.38;5.75;;;;;;;11.89;nan;99221.38;4998746;28;20030;-68
2023/03/09 05:29:56;;;;;;;22.67;5.37;;;;;;;11.82;nan;99216.31;4998291;28;20022;-68
2023/03/09 05:32:22;;;;;;;17.63;5.32;;;;;;;11.75;nan;99226.16;4998469;28;20084;-68
2023/03/09 05:34:47;;;;;;;19.57;5.40;;;;;;;11.68;nan;99235.97;4997130;28;20026;-68
2023/03/09 05:37:13;;;;;;;19.33;5.10;;;;;;;11.61;nan;99237.03;4998675;28;20022;-68
2023/03/09 05:39:38;;;;;;;23.15;5.50;;;;;;;11.55;nan;99221.38;5002953;28;20022;-68
2023/03/09 05:42:04;;;;;;;17.97;5.37;;;;;;;11.51;nan;99209.19;5000415;28;20069;-68
2023/03/09 05:44:29;;;;;;;21.47;5.60;;;;;;;11.45;nan;99216.34;4998390;28;20037;-68
2023/03/09 05:46:55;;;;;;;19.52;4.72;;;;;;;11.41;nan;99222.59;4998131;28;20100;-68
2023/03/09 05:49:20;;;;;;;15.67;4.87;;;;;;;11.36;nan;99216.56;4979976;28;20130;-68
2023/03/09 05:51:46;;;;;;;17.60;4.57;;;;;;;11.31;nan;99213.19;4978972;28;20035;-68
2023/03/09 05:54:11;;;;;;;23.80;4.57;;;;;;;11.24;nan;99217.72;4977312;28;20030;-68
2023/03/09 05:56:36;;;;;;;11.93;3.85;;;;;;;11.18;nan;99215.25;4979535;28;20037;-68
2023/03/09 05:59:02;;;;;;;14.97;3.93;;;;;;;11.12;nan;99210.13;4993161;28;20089;-68
2023/03/09 06:01:29;;;;;;;15.80;4.15;;;;;;;11.08;nan;99222.50;4993305;28;20046;-68
2023/03/09 06:03:56;;;;;;;16.30;4.77;;;;;;;11.04;nan;99226.94;4991515;28;20039;-68
2023/03/09 06:06:22;;;;;;;19.00;5.13;;;;;;;11.03;nan;99230.50;4980651;28;20038;-68
2023/03/09 06:08:48;;;;;;;17.92;4.65;;;;;;;11.02;nan;99233.19;4997924;28;20105;-68
2023/03/09 06:11:14;;;;;;;19.20;5.47;;;;;;;11.03;nan;99251.56;4995382;28;20190;-68
2023/03/09 06:13:39;;;;;;;17.33;5.63;;;;;;;11.05;nan;99238.38;4996458;28;20068;-68
2023/03/09 06:16:06;;;;;;;18.27;5.23;;;;;;;11.08;nan;99237.41;5001159;28;20026;-69
2023/03/09 06:18:32;;;;;;;18.40;6.18;;;;;;;11.09;nan;99229.50;4997822;28;20050;-69
2023/03/09 06:21:02;;;;;;;25.07;6.23;;;;;;;11.11;nan;99230.31;4997830;28;20557;-69
2023/03/09 06:23:30;;;;;;;23.65;6.07;;;;;;;11.15;nan;99228.50;4997666;28;20109;-69
2023/03/09 06:25:56;;;;;;;23.23;5.80;;;;;;;11.16;nan;99230.22;4997537;28;20117;-68
2023/03/09 06:28:22;;;;;;;22.27;6.43;;;;;;;11.17;nan;99237.22;4997544;28;20249;-68
2023/03/09 06:30:48;;;;;;;29.83;7.50;;;;;;;11.17;nan;99227.53;4997044;28;20022;-68
2023/03/09 06:33:13;;;;;;;20.80;6.57;;;;;;;11.16;nan;99231.06;4997006;28;20030;-68
2023/03/09 06:35:40;;;;;;;24.23;6.88;;;;;;;11.15;nan;99234.59;4990167;28;20029;-69
2023/03/09 06:38:05;;;;;;;20.83;6.63;;;;;;;11.13;nan;99233.78;4978791;28;20027;-68
2023/03/09 06:40:30;;;;;;;18.98;6.55;;;;;;;11.11;nan;99237.38;5001999;28;20068;-68
2023/03/09 06:42:56;;;;;;;26.63;6.97;;;;;;;11.10;nan;99231.22;4983591;28;20031;-68
2023/03/09 06:45:21;;;;;;;19.57;7.00;;;;;;;11.12;nan;99239.97;4986404;28;20034;-66
2023/03/09 06:47:47;;;;;;;19.43;6.57;;;;;;;11.14;nan;99248.69;4996591;28;20546;-65
2023/03/09 06:50:13;;;;;;;23.88;6.82;;;;;;;11.17;nan;99243.34;4985556;28;20045;-66
2023/03/09 06:52:38;;;;;;;25.13;8.37;;;;;;;11.19;nan;99246.81;4977760;28;20038;-65
2023/03/09 06:55:05;;;;;;;27.35;8.88;;;;;;;11.24;nan;99245.84;4986942;28;20030;-65
2023/03/09 06:57:30;;;;;;;22.92;8.38;;;;;;;11.27;nan;99243.16;4995665;28;20113;-66
2023/03/09 06:59:55;;;;;;;30.07;10.33;;;;;;;11.30;nan;99237.81;4991424;28;20049;-65
2023/03/09 07:02:21;;;;;;;31.83;10.50;;;;;;;11.34;nan;99236.81;4996375;28;20057;-65
2023/03/09 07:04:46;;;;;;;32.33;9.63;;;;;;;11.37;nan;99231.47;4998458;28;20026;-66
2023/03/09 07:07:12;;;;;;;25.50;10.10;;;;;;;11.40;nan;99233.19;4997165;28;20056;-66
2023/03/09 07:09:38;;;;;;;30.77;11.52;;;;;;;11.42;nan;99232.22;4996900;28;20022;-66
2023/03/09 07:12:04;;;;;;;32.53;10.48;;;;;;;11.46;nan;99227.75;4995048;28;20034;-66
2023/03/09 07:14:29;;;;;;;26.10;9.60;;;;;;;11.52;nan;99237.28;4998460;28;20053;-66
2023/03/09 07:16:56;;;;;;;24.98;10.35;;;;;;;11.57;nan;99235.41;5003717;28;20439;-66
2023/03/09 07:19:22;;;;;;;27.23;10.63;;;;;;;11.62;nan;99222.97;5001148;28;20027;-66
2023/03/09 07:21:49;;;;;;;26.50;10.03;;;;;;;11.69;nan;99234.22;4999868;28;20037;-66
2023/03/09 07:24:15;;;;;;;24.95;10.68;;;;;;;11.75;nan;99232.31;4990480;28;20014;-66
2023/03/09 07:26:40;;;;;;;23.08;8.70;;;;;;;11.84;nan;99227.69;4994050;28;20026;-66
2023/03/09 07:29:06;;;;;;;30.20;9.10;;;;;;;11.91;nan;99226.59;4997411;28;20036;-66
2023/03/09 07:31:32;;;;;;;22.70;6.95;;;;;;;11.96;nan;99224.75;4999505;28;20042;-66
2023/03/09 07:33:58;;;;;;;24.07;7.83;;;;;;;12.05;nan;99218.34;5000918;28;20034;-66
2023/03/09 07:36:25;;;;;;;22.02;8.35;;;;;;;12.14;nan;99226.03;5000681;28;20150;-66
2023/03/09 07:38:51;;;;;;;19.50;8.02;;;;;;;12.24;nan;99225.78;5001159;28;20030;-66
2023/03/09 07:41:17;;;;;;;24.83;7.57;;;;;;;12.33;nan;99221.09;5002483;28;20502;-66
2023/03/09 07:43:45;;;;;;;17.70;7.47;;;;;;;12.44;nan;99222.59;5000490;28;20101;-66
2023/03/09 07:46:13;;;;;;;22.48;7.00;;;;;;;12.55;nan;99224.94;5000110;28;20026;-66
2023/03/09 07:48:39;;;;;;;19.08;6.90;;;;;;;12.61;nan;99215.03;5000688;28;20092;-66
2023/03/09 07:51:05;;;;;;;18.00;6.87;;;;;;;12.73;nan;99218.22;5000560;28;20027;-66
2023/03/09 07:53:32;;;;;;;19.00;6.82;;;;;;;12.86;nan;99224.84;5000534;28;20058;-66
2023/03/09 07:56:00;;;;;;;18.60;6.78;;;;;;;13.01;nan;99217.38;5000424;28;20022;-66
2023/03/09 07:58:26;;;;;;;20.90;7.63;;;;;;;13.17;nan;99220.41;5000489;28;20018;-66
2023/03/09 08:00:51;;;;;;;20.37;7.27;;;;;;;13.32;nan;99224.34;4989272;28;20053;-66
2023/03/09 08:03:16;;;;;;;17.67;6.07;;;;;;;13.42;nan;99222.25;4994298;28;20098;-67
2023/03/09 08:05:42;;;;;;;24.47;7.03;;;;;;;13.54;nan;99219.25;4994851;28;20393;-67
2023/03/09 08:08:08;;;;;;;16.27;6.63;;;;;;;13.69;nan;99214.34;4997804;28;20025;-67
2023/03/09 08:10:34;;;;;;;17.40;6.20;;;;;;;13.86;nan;99213.78;4993093;28;20030;-67
2023/03/09 08:13:00;;;;;;;13.60;5.10;;;;;;;13.97;nan;99213.41;4999978;28;20022;-67
2023/03/09 08:15:25;;;;;;;17.38;5.25;;;;;;;14.04;nan;99221.06;5003560;28;20037;-67
2023/03/09 08:17:51;;;;;;;15.00;4.70;;;;;;;14.11;nan;99218.22;4999302;28;20022;-66
2023/03/09 08:20:16;;;;;;;15.40;4.53;;;;;;;14.17;nan;99207.41;4998612;28;20046;-66
2023/03/09 08:22:42;;;;;;;17.50;3.93;;;;;;;14.24;nan;99216.84;4999966;28;20430;-66
2023/03/09 08:25:08;;;;;;;11.57;4.00;;;;;;;14.30;nan;99219.28;4999659;28;20030;-67
2023/03/09 08:27:38;;;;;;;16.10;3.78;;;;;;;14.38;nan;99221.66;4998991;28;20053;-67
2023/03/09 08:30:05;;;;;;;14.63;4.27;;;;;;;14.47;nan;99234.56;4999064;28;20018;-66
2023/03/09 08:32:31;;;;;;;13.68;4.47;;;;;;;14.58;nan;99226.19;4999813;28;20026;-67
2023/03/09 08:34:56;;;;;;;17.52;4.68;;;;;;;14.67;nan;99221.50;4998264;28;20034;-67
2023/03/09 08:37:22;;;;;;;16.80;4.00;;;;;;;14.69;nan;99222.28;4988409;28;20027;-67
2023/03/09 08:39:51;;;;;;;13.52;3.95;;;;;;;14.71;nan;99217.84;5006222;28;20061;-67
2023/03/09 08:42:20;;;;;;;12.85;4.03;;;;;;;14.70;nan;99214.28;5001458;28;20062;-67
2023/03/09 08:44:45;;;;;;;14.90;4.32;;;;;;;14.73;nan;99215.97;4999413;28;20503;-67
2023/03/09 08:47:11;;;;;;;18.67;4.47;;;;;;;14.76;nan;99214.09;4999441;28;20073;-68
2023/03/09 08:49:40;;;;;;;16.63;3.90;;;;;;;14.78;nan;99221.97;4999014;28;20018;-67
2023/03/09 08:52:06;;;;;;;14.25;4.35;;;;;;;14.76;nan;99214.09;4999268;28;20025;-67
2023/03/09 08:54:31;;;;;;;17.23;4.57;;;;;;;14.82;nan;99217.44;4999110;28;20026;-68
2023/03/09 08:56:57;;;;;;;19.00;4.90;;;;;;;14.87;nan;99224.28;5003115;28;20040;-68
2023/03/09 08:59:22;;;;;;;14.50;4.37;;;;;;;14.93;nan;99226.69;4989078;28;20058;-68
2023/03/09 09:01:47;;;;;;;16.17;4.90;;;;;;;14.99;nan;99219.41;4995392;28;20050;-68
2023/03/09 09:04:13;;;;;;;18.60;5.40;;;;;;;15.10;nan;99226.94;4993186;28;20399;-68
2023/03/09 09:06:38;;;;;;;14.02;4.95;;;;;;;15.21;nan;99230.91;4999116;28;20022;-68
2023/03/09 09:09:04;;;;;;;18.00;4.37;;;;;;;15.37;nan;99230.28;4997430;28;20469;-68
2023/03/09 09:11:30;;;;;;;16.10;4.67;;;;;;;15.55;nan;99217.16;4997560;28;20026;-68
2023/03/09 09:13:56;;;;;;;15.20;3.72;;;;;;;15.76;nan;99215.44;4998839;28;20080;-68
2023/03/09 09:16:21;;;;;;;16.40;3.72;;;;;;;15.90;nan;99214.88;5002776;28;20109;-68
2023/03/09 09:18:47;;;;;;;16.30;4.10;;;;;;;16.02;nan;99214.31;4998652;28;20109;-68
2023/03/09 09:21:15;;;;;;;13.60;3.87;;;;;;;16.20;nan;99198.50;4997433;28;20443;-68
2023/03/09 09:23:42;;;;;;;14.68;3.60;;;;;;;16.38;nan;99195.97;4998651;28;20022;-68
2023/03/09 09:26:08;;;;;;;18.27;4.13;;;;;;;16.57;nan;99202.16;4985739;28;20039;-68
2023/03/09 09:28:34;;;;;;;12.43;4.18;;;;;;;16.82;nan;99205.47;4979397;28;20460;-68
2023/03/09 09:31:02;;;;;;;12.80;3.58;;;;;;;17.02;nan;99205.41;4988279;28;20121;-68
2023/03/09 09:33:28;;;;;;;12.87;3.60;;;;;;;17.16;nan;99204.75;4998809;28;20018;-68
2023/03/09 09:36:02;;;;;;;15.23;3.67;;;;;;;17.22;nan;99201.78;4986933;28;20034;-67
2023/03/09 09:38:28;;;;;;;11.38;3.28;;;;;;;17.37;nan;99201.97;4992218;28;20041;-68
2023/03/09 09:40:55;;;;;;;12.63;3.33;;;;;;;17.44;nan;99203.38;5004820;28;20018;-69
2023/03/09 09:43:22;;;;;;;12.02;2.95;;;;;;;17.52;nan;99210.16;4997143;28;20497;-68
2023/03/09 09:45:51;;;;;;;12.17;3.27;;;;;;;17.51;nan;99209.28;4998208;28;20372;-68
2023/03/09 09:48:18;;;;;;;13.57;3.33;;;;;;;17.53;nan;99211.88;4998145;28;20023;-68
2023/03/09 09:50:49;;;;;;;14.45;3.50;;;;;;;17.53;nan;99214.53;4996414;28;20053;-68
2023/03/09 09:53:37;;;;;;;16.48;3.38;;;;;;;17.57;nan;99218.75;4998233;28;20028;-68
2023/03/09 09:56:09;;;;;;;17.77;3.63;;;;;;;17.68;nan;99208.41;4998032;28;20026;-68
2023/03/09 09:58:50;;;;;;;13.20;3.37;;;;;;;17.69;nan;99206.63;4997493;28;20427;-68
2023/03/09 10:01:29;;;;;;;12.70;3.92;;;;;;;17.78;nan;99193.72;4990882;28;20046;-68
2023/03/09 10:04:01;;;;;;;14.63;3.55;;;;;;;17.86;nan;99184.47;4996047;28;20026;-68
2023/03/09 10:06:28;;;;;;;14.30;3.55;;;;;;;18.05;nan;99182.59;5001370;28;20529;-68
2023/03/09 10:09:06;;;;;;;13.02;3.50;;;;;;;18.42;nan;99184.22;4992961;28;20041;-68
2023/03/09 10:11:41;;;;;;;16.27;4.00;;;;;;;19.14;nan;99179.38;4997665;28;20030;-68
2023/03/09 10:14:18;;;;;;;15.02;3.60;;;;;;;20.34;nan;99167.88;4997756;28;20403;-68
2023/03/09 10:16:52;;;;;;;15.98;3.03;;;;;;;21.65;nan;99160.38;4999211;28;20034;-68
2023/03/09 10:19:31;;;;;;;17.92;3.40;;;;;;;22.57;nan;99156.78;4997616;28;20037;-68
2023/03/09 10:21:59;;;;;;;16.35;3.05;;;;;;;23.07;nan;99153.19;4997365;28;20027;-68
2023/03/09 10:24:26;;;;;;;14.23;3.30;;;;;;;23.46;nan;99169.97;4994964;28;20508;-68
2023/03/09 10:26:57;;;;;;;14.93;3.15;;;;;;;23.72;nan;99168.97;4987011;28;20540;-68
2023/03/09 10:29:47;;;;;;;17.05;3.55;;;;;;;23.88;nan;99168.66;4983161;28;20035;-67
2023/03/09 10:32:21;;;;;;;12.30;3.10;;;;;;;24.27;nan;99162.97;4995977;28;20030;-68
2023/03/09 10:35:04;;;;;;;14.18;3.10;;;;;;;24.75;nan;99154.66;4997470;28;20057;-69
2023/03/09 10:37:36;;;;;;;15.77;3.33;;;;;;;25.65;nan;99149.97;4997635;28;20033;-68
2023/03/09 10:40:13;;;;;;;14.80;3.92;;;;;;;26.88;nan;99139.34;5004370;28;20022;-66
2023/03/09 10:42:39;;;;;;;15.75;3.85;;;;;;;28.40;nan;99137.94;4999212;28;20101;-66
2023/03/09 10:45:22;;;;;;;13.67;3.47;;;;;;;29.80;nan;99129.56;4997658;28;20109;-66
2023/03/09 10:47:52;;;;;;;16.65;4.00;;;;;;;30.92;nan;99121.47;4996811;28;20403;-66
2023/03/09 10:50:19;;;;;;;12.75;3.30;;;;;;;31.92;nan;99129.72;4996488;28;20026;-66
2023/03/09 10:52:44;;;;;;;15.25;3.60;;;;;;;32.75;nan;99118.56;4996965;28;20090;-67
2023/03/09 10:55:27;;;;;;;16.43;3.70;;;;;;;33.24;nan;99108.38;4996136;28;20109;-67
2023/03/09 10:58:17;;;;;;;13.10;3.60;;;;;;;34.04;nan;99106.16;5000977;28;20383;-66
2023/03/09 11:01:19;;;;;;;12.87;3.57;;;;;;;34.47;nan;99117.22;4985032;28;20046;-66
2023/03/09 11:03:44;;;;;;;14.25;3.60;;;;;;;35.16;nan;99104.19;4989207;28;20048;-67
2023/03/09 11:06:13;;;;;;;12.33;3.57;;;;;;;35.37;nan;99090.69;4977628;28;20022;-66
2023/03/09 11:08:41;;;;;;;12.73;3.50;;;;;;;35.68;nan;99095.81;4991481;28;20084;-69
2023/03/09 11:11:19;;;;;;;12.68;3.78;;;;;;;35.70;nan;99087.41;4987120;28;20041;-66
2023/03/09 11:13:45;;;;;;;13.10;3.17;;;;;;;35.83;nan;99092.13;4990603;28;20040;-67
2023/03/09 11:16:19;;;;;;;12.17;3.33;;;;;;;35.13;nan;99092.78;4994721;28;20023;-67
2023/03/09 11:18:45;;;;;;;13.20;3.08;;;;;;;34.58;nan;99087.75;4996348;28;20019;-66
2023/03/09 11:21:21;;;;;;;14.95;3.10;;;;;;;34.33;nan;99086.16;4997497;28;20125;-67
2023/03/09 11:23:50;;;;;;;10.50;2.80;;;;;;;33.92;nan;99087.47;4997919;28;20027;-66
2023/03/09 11:26:25;;;;;;;14.55;3.42;;;;;;;33.64;nan;99077.16;4983261;28;20466;-66
2023/03/09 11:29:15;;;;;;;11.88;3.10;;;;;;;33.40;nan;99071.91;4977557;28;20027;-66
2023/03/09 11:31:42;;;;;;;11.57;2.95;;;;;;;33.34;nan;99065.31;4994299;28;20034;-66
2023/03/09 11:34:15;;;;;;;12.93;3.17;;;;;;;33.15;nan;99069.41;4996598;28;20037;-67
2023/03/09 11:37:27;;;;;;;12.13;3.00;;;;;;;32.85;nan;99061.06;4992485;28;20018;-67
2023/03/09 11:39:57;;;;;;;14.85;3.38;;;;;;;33.03;nan;99060.78;4987660;28;20065;-68
2023/03/09 11:42:45;;;;;;;14.40;3.55;;;;;;;33.16;nan;99071.09;4986459;28;20038;-67
2023/03/09 11:45:18;;;;;;;10.88;2.80;;;;;;;33.62;nan;99064.72;4986424;28;20073;-66